Time;durP1;ratioP1;P1;durP2;ratioP2;P2;SDS_P1;SDS_P2;PMS_P1;PMS_P2;Temp;Humidity;BMP_temperature;BMP_pressure;BME280_temperature;BME280_humidity;BME280_pressure;Samples;Min_cycle;Max_cycle;Signal;HPM_P1;HPM_P2
2021/06/25 00:02:17;;;;;;;7.97;5.50;;;;;;;15.47;78.22;101138.42;124789;1093;64358;-78
2021/06/25 00:04:44;;;;;;;7.00;5.20;;;;;;;15.44;78.50;101136.13;124805;1093;64299;-78
2021/06/25 00:07:11;;;;;;;11.40;6.17;;;;;;;15.42;78.65;101143.52;124881;1093;64333;-78
2021/06/25 00:09:38;;;;;;;9.10;6.50;;;;;;;15.41;78.64;101139.20;124930;1093;64282;-77
2021/06/25 00:12:08;;;;;;;7.63;5.20;;;;;;;15.40;78.71;101134.86;124822;1093;64291;-78
2021/06/25 00:14:36;;;;;;;10.70;5.50;;;;;;;15.39;78.97;101135.89;125045;1093;64393;-77
2021/06/25 00:17:04;;;;;;;9.03;5.33;;;;;;;15.35;78.87;101131.96;124843;1093;64288;-78
2021/06/25 00:19:31;;;;;;;9.27;6.17;;;;;;;15.33;79.15;101134.00;124824;1092;64304;-79
2021/06/25 00:21:58;;;;;;;7.17;6.20;;;;;;;15.32;79.20;101126.17;124867;1093;64357;-79
2021/06/25 00:24:26;;;;;;;7.00;4.85;;;;;;;15.30;79.20;101139.75;124844;1092;64146;-79
2021/06/25 00:26:53;;;;;;;8.60;5.50;;;;;;;15.30;79.31;101150.45;124895;1093;64428;-78
2021/06/25 00:29:21;;;;;;;8.60;6.20;;;;;;;15.30;79.56;101150.45;124964;1093;64296;-78
2021/06/25 00:31:49;;;;;;;14.40;7.85;;;;;;;15.31;79.09;101152.08;125074;1093;64381;-79
2021/06/25 00:34:16;;;;;;;7.77;5.37;;;;;;;15.29;79.53;101148.78;124988;1093;64349;-79
2021/06/25 00:36:44;;;;;;;7.67;5.90;;;;;;;15.27;79.48;101148.14;124802;1093;64259;-80
2021/06/25 00:39:12;;;;;;;11.13;6.60;;;;;;;15.26;79.45;101154.53;124883;1092;64310;-78
2021/06/25 00:41:39;;;;;;;7.77;5.80;;;;;;;15.26;79.47;101154.53;125201;1093;64969;-78
2021/06/25 00:44:14;;;;;;;6.90;4.73;;;;;;;15.23;79.39;101150.38;125123;1093;64307;-78
2021/06/25 00:46:41;;;;;;;7.10;5.27;;;;;;;15.21;79.72;101146.25;126156;1093;64217;-78
2021/06/25 00:49:08;;;;;;;7.50;5.50;;;;;;;15.20;79.62;101155.30;126448;1093;62958;-78
2021/06/25 00:51:36;;;;;;;8.53;5.23;;;;;;;15.19;79.71;101158.98;126288;1093;64393;-80
2021/06/25 00:54:04;;;;;;;8.30;6.10;;;;;;;15.16;79.58;101165.54;126688;1093;64326;-79
2021/06/25 01:04:05;;;;;;;10.50;6.00;;;;;;;15.09;80.02;101153.98;125979;1093;64227;-81
2021/06/25 01:06:32;;;;;;;8.27;6.10;;;;;;;15.06;79.69;101157.02;125763;1093;64314;-81
2021/06/25 01:09:01;;;;;;;9.10;6.50;;;;;;;15.03;79.84;101150.23;125237;1092;64285;-80
2021/06/25 01:11:30;;;;;;;8.80;6.10;;;;;;;15.00;79.93;101155.97;126445;1093;64291;-79
2021/06/25 01:13:58;;;;;;;13.57;6.03;;;;;;;14.96;79.49;101153.85;125111;1092;64273;-78
2021/06/25 01:16:27;;;;;;;8.90;5.40;;;;;;;14.92;80.10;101149.91;125009;1093;64210;-79
2021/06/25 01:18:54;;;;;;;8.97;5.70;;;;;;;14.87;80.10;101150.49;124885;1093;64358;-79
2021/06/25 01:21:22;;;;;;;8.95;6.40;;;;;;;14.83;80.38;101135.86;125016;1092;64310;-79
2021/06/25 01:23:49;;;;;;;8.03;6.17;;;;;;;14.80;80.73;101149.62;125196;1092;64359;-80
2021/06/25 01:26:17;;;;;;;8.17;5.70;;;;;;;14.75;80.83;101141.34;125186;1093;64201;-79
2021/06/25 01:28:44;;;;;;;10.40;6.47;;;;;;;14.70;80.89;101143.77;125027;1092;64300;-78
2021/06/25 01:31:11;;;;;;;12.73;6.77;;;;;;;14.68;81.15;101147.47;124859;1093;64265;-79
2021/06/25 01:33:38;;;;;;;10.73;6.40;;;;;;;14.66;81.48;101144.16;124971;1093;64259;-79
2021/06/25 01:36:05;;;;;;;7.30;5.77;;;;;;;14.64;81.26;101140.00;125041;1093;65528;-79
2021/06/25 01:38:32;;;;;;;8.77;6.17;;;;;;;14.57;81.54;101144.47;124872;1093;64304;-81
2021/06/25 01:41:00;;;;;;;10.50;6.23;;;;;;;14.55;81.81;101138.45;124960;1092;64255;-79
2021/06/25 01:43:27;;;;;;;8.27;6.30;;;;;;;14.52;81.87;101131.66;124797;1093;64382;-78
2021/06/25 01:45:55;;;;;;;9.47;7.07;;;;;;;14.48;82.32;101131.20;125010;1092;64383;-78
2021/06/25 01:48:22;;;;;;;8.10;6.47;;;;;;;14.46;82.30;101127.89;125207;1093;64285;-77
2021/06/25 01:50:49;;;;;;;8.40;6.87;;;;;;;14.44;82.55;101124.59;125026;1093;64651;-79
2021/06/25 01:53:18;;;;;;;10.35;6.45;;;;;;;14.43;82.26;101127.47;124997;1093;64030;-78
2021/06/25 01:55:49;;;;;;;7.35;6.30;;;;;;;14.37;82.25;101123.70;124722;1093;64304;-78
2021/06/25 01:58:23;;;;;;;11.07;6.53;;;;;;;14.37;82.45;101128.22;124878;1093;64378;-80
2021/06/25 02:01:09;;;;;;;7.77;6.27;;;;;;;14.33;82.53;101126.95;125060;1093;64307;-79
2021/06/25 02:03:40;;;;;;;10.73;5.87;;;;;;;14.28;82.73;101125.67;124988;1093;64211;-80
2021/06/25 02:06:08;;;;;;;9.30;6.27;;;;;;;14.26;83.40;101137.55;124877;1092;64309;-78
2021/06/25 02:08:38;;;;;;;9.03;6.47;;;;;;;14.24;83.02;101135.06;124892;1093;64480;-77
2021/06/25 02:11:06;;;;;;;8.80;6.37;;;;;;;14.22;83.26;101137.09;125021;1093;64259;-77
2021/06/25 02:13:34;;;;;;;8.07;5.77;;;;;;;14.19;83.33;101129.45;125229;1093;64381;-78
2021/06/25 02:16:01;;;;;;;10.37;7.20;;;;;;;14.18;83.33;101135.81;124974;1093;64236;-77
2021/06/25 02:18:28;;;;;;;9.97;6.70;;;;;;;14.16;83.44;101127.17;124889;1093;65397;-78
2021/06/25 02:20:55;;;;;;;10.63;6.70;;;;;;;14.17;83.84;101128.81;124933;1093;64382;-78
2021/06/25 02:23:22;;;;;;;7.03;5.70;;;;;;;14.20;83.85;101132.97;124728;1093;64872;-77
2021/06/25 02:25:49;;;;;;;10.50;6.63;;;;;;;14.23;83.80;101125.39;124876;1093;64213;-77
2021/06/25 02:28:16;;;;;;;9.97;6.60;;;;;;;14.26;83.70;101132.22;124888;1093;64281;-79
2021/06/25 02:30:43;;;;;;;9.03;7.03;;;;;;;14.26;83.73;101138.38;124981;1093;64272;-77
2021/06/25 02:33:10;;;;;;;13.40;7.23;;;;;;;14.27;83.56;101134.67;124763;1092;64809;-77
2021/06/25 02:35:37;;;;;;;9.03;6.27;;;;;;;14.27;83.75;101133.86;124999;1093;64563;-78
2021/06/25 02:38:04;;;;;;;9.73;7.03;;;;;;;14.27;83.75;101128.52;124924;1093;64307;-78
2021/06/25 02:40:31;;;;;;;9.20;6.40;;;;;;;14.28;83.65;101133.67;124925;1092;64304;-77
2021/06/25 02:42:59;;;;;;;8.13;6.50;;;;;;;14.30;83.60;101121.97;124742;1093;64374;-77
2021/06/25 02:45:27;;;;;;;12.80;7.20;;;;;;;14.33;83.85;101125.09;124777;1092;64888;-77
2021/06/25 02:47:54;;;;;;;8.80;6.43;;;;;;;14.36;83.83;101111.36;124828;1093;64294;-78
2021/06/25 02:50:21;;;;;;;9.60;6.47;;;;;;;14.38;84.13;101108.52;124919;1093;65376;-77
2021/06/25 02:52:48;;;;;;;8.80;6.47;;;;;;;14.38;83.64;101108.52;124769;1093;64365;-77
2021/06/25 02:55:15;;;;;;;7.20;5.93;;;;;;;14.36;83.56;101094.53;124934;1092;64282;-78
2021/06/25 02:57:42;;;;;;;10.93;6.50;;;;;;;14.34;83.45;101091.22;125121;1093;64214;-78
2021/06/25 03:00:16;;;;;;;9.40;7.07;;;;;;;14.33;83.95;101100.26;124848;1093;64233;-78
2021/06/25 03:02:44;;;;;;;9.27;6.80;;;;;;;14.32;84.08;101094.08;124864;1093;64288;-78
2021/06/25 03:05:14;;;;;;;8.57;6.43;;;;;;;14.33;84.07;101089.59;125201;1092;64900;-80
2021/06/25 03:07:42;;;;;;;7.57;6.47;;;;;;;14.30;83.66;101085.43;124859;1093;64207;-80
2021/06/25 03:10:11;;;;;;;8.73;6.23;;;;;;;14.30;83.98;101076.61;125072;1093;64216;-79
2021/06/25 03:12:39;;;;;;;8.80;5.77;;;;;;;14.28;83.55;101087.48;124976;1093;64301;-79
2021/06/25 03:15:07;;;;;;;9.90;6.00;;;;;;;14.29;84.16;101083.79;125034;1093;64304;-78
2021/06/25 03:17:34;;;;;;;9.30;6.60;;;;;;;14.30;84.30;101082.77;125387;1092;64214;-78
2021/06/25 03:20:04;;;;;;;11.03;6.30;;;;;;;14.34;84.15;101083.22;124890;1092;64318;-78
2021/06/25 03:22:31;;;;;;;8.33;6.53;;;;;;;14.37;84.29;101081.00;124847;1093;64415;-78
2021/06/25 03:24:58;;;;;;;8.93;6.70;;;;;;;14.41;84.26;101079.61;124913;1093;64381;-78
2021/06/25 03:27:25;;;;;;;10.27;6.43;;;;;;;14.42;83.90;101083.09;124763;1093;64524;-80
2021/06/25 03:29:52;;;;;;;9.13;6.50;;;;;;;14.42;83.80;101078.58;124946;1093;64291;-77
2021/06/25 03:32:19;;;;;;;8.50;6.27;;;;;;;14.44;83.99;101076.54;125203;1091;64276;-77
2021/06/25 03:34:47;;;;;;;10.57;6.77;;;;;;;14.49;84.17;101073.30;126580;1092;64235;-79
2021/06/25 03:37:14;;;;;;;12.87;6.50;;;;;;;14.54;84.13;101070.08;127709;1093;64128;-79
2021/06/25 03:39:41;;;;;;;13.60;7.33;;;;;;;14.58;84.08;101066.86;126460;1092;64197;-79
2021/06/25 03:42:09;;;;;;;12.23;6.73;;;;;;;14.60;83.52;101072.83;127024;1093;64230;-78
2021/06/25 03:44:36;;;;;;;7.03;5.57;;;;;;;14.61;83.58;101065.64;125033;1093;64349;-77
2021/06/25 03:47:03;;;;;;;9.53;6.53;;;;;;;14.60;83.75;101059.48;124759;1093;64429;-77
2021/06/25 03:49:31;;;;;;;10.63;6.00;;;;;;;14.60;83.83;101064.82;127652;1093;64137;-78
2021/06/25 03:51:58;;;;;;;8.30;5.47;;;;;;;14.55;83.94;101067.22;127708;1093;64163;-78
2021/06/25 03:54:26;;;;;;;8.90;6.63;;;;;;;14.51;83.40;101060.58;125183;1092;64320;-79
2021/06/25 03:56:53;;;;;;;6.60;4.97;;;;;;;14.47;83.69;101069.98;125275;1092;64205;-78
2021/06/25 03:59:20;;;;;;;7.77;5.13;;;;;;;14.41;84.44;101070.78;125774;1092;64825;-78
2021/06/25 04:01:48;;;;;;;12.23;6.67;;;;;;;14.36;84.33;101074.00;125246;1093;64231;-79
2021/06/25 04:04:15;;;;;;;8.60;6.95;;;;;;;14.35;84.64;101075.03;126484;1093;64219;-79
2021/06/25 04:06:42;;;;;;;7.80;6.67;;;;;;;14.37;84.84;101064.17;126470;1092;64304;-80
2021/06/25 04:09:09;;;;;;;8.23;6.50;;;;;;;14.41;84.79;101066.27;125815;1092;64291;-78
2021/06/25 04:11:36;;;;;;;10.27;6.43;;;;;;;14.47;84.82;101069.98;125201;1093;64288;-78
2021/06/25 04:14:04;;;;;;;9.50;6.30;;;;;;;14.55;84.76;101061.03;125958;1093;64288;-79
2021/06/25 04:16:31;;;;;;;8.17;6.37;;;;;;;14.59;84.28;101067.67;126387;1092;65404;-78
2021/06/25 04:18:58;;;;;;;8.00;5.97;;;;;;;14.61;84.43;101066.45;126647;1093;64211;-79
2021/06/25 04:21:25;;;;;;;8.50;4.50;;;;;;;14.62;84.07;101073.47;125339;1092;64198;-78
2021/06/25 04:23:52;;;;;;;8.47;5.90;;;;;;;14.61;83.61;101074.47;125311;1092;64208;-78
2021/06/25 04:26:19;;;;;;;11.23;7.33;;;;;;;14.61;83.88;101077.14;125136;1092;64319;-78
2021/06/25 04:28:46;;;;;;;9.00;5.10;;;;;;;14.64;83.95;101083.93;124980;1093;64288;-77
2021/06/25 04:31:13;;;;;;;8.57;6.63;;;;;;;14.68;84.16;101083.38;125145;1093;64297;-78
2021/06/25 04:33:40;;;;;;;7.23;4.93;;;;;;;14.73;83.77;101084.63;125038;1092;64307;-78
2021/06/25 04:36:07;;;;;;;12.23;6.87;;;;;;;14.78;83.96;101092.89;124871;1091;64307;-77
2021/06/25 04:38:34;;;;;;;9.87;6.67;;;;;;;14.85;84.02;101083.08;124899;1093;64367;-77
2021/06/25 04:41:03;;;;;;;9.03;5.37;;;;;;;14.89;83.63;101082.50;124937;1093;64381;-77
2021/06/25 04:43:30;;;;;;;6.90;4.67;;;;;;;14.95;82.79;101080.91;124778;1092;64303;-77
2021/06/25 04:46:00;;;;;;;11.83;6.10;;;;;;;14.97;82.38;101073.52;125239;1093;65514;-79
2021/06/25 04:48:28;;;;;;;11.33;5.33;;;;;;;15.02;82.16;101078.28;124839;1092;64349;-80
2021/06/25 04:50:55;;;;;;;6.67;5.40;;;;;;;15.04;81.94;101077.05;125015;1093;64291;-78
2021/06/25 04:53:23;;;;;;;13.17;7.00;;;;;;;15.04;81.74;101077.05;124812;1093;64202;-78
2021/06/25 04:55:50;;;;;;;15.17;5.27;;;;;;;15.06;81.68;101075.02;124835;1093;64297;-77
2021/06/25 04:58:18;;;;;;;7.33;4.37;;;;;;;15.09;81.27;101079.98;125062;1093;64288;-79
2021/06/25 05:00:46;;;;;;;20.87;5.60;;;;;;;15.15;80.95;101082.89;125039;1092;64416;-78
2021/06/25 05:03:14;;;;;;;8.57;4.30;;;;;;;15.20;80.84;101075.13;125111;1093;64234;-78
2021/06/25 05:05:45;;;;;;;17.87;5.70;;;;;;;15.28;80.70;101082.99;124935;1092;64233;-79
2021/06/25 05:08:12;;;;;;;11.43;5.23;;;;;;;15.34;80.10;101076.02;125042;1092;64295;-79
2021/06/25 05:10:40;;;;;;;12.97;6.20;;;;;;;15.37;79.73;101071.11;125092;1093;64307;-79
2021/06/25 05:13:07;;;;;;;14.90;5.83;;;;;;;15.41;79.58;101068.88;125184;1093;64451;-80
2021/06/25 05:15:35;;;;;;;15.27;6.30;;;;;;;15.42;79.57;101074.00;125126;1092;64297;-80
2021/06/25 05:18:17;;;;;;;11.17;6.90;;;;;;;15.49;79.78;101077.55;124855;1093;64258;-73
2021/06/25 05:21:04;;;;;;;13.83;6.20;;;;;;;15.58;80.21;101078.21;124770;1093;64219;-77
2021/06/25 05:23:34;;;;;;;11.73;5.50;;;;;;;15.68;79.94;101077.83;124848;1093;64313;-74
2021/06/25 05:26:02;;;;;;;10.70;6.20;;;;;;;15.79;79.82;101073.78;124908;1093;64965;-73
2021/06/25 05:28:30;;;;;;;8.83;5.80;;;;;;;15.87;79.37;101082.48;124927;1093;64307;-73
2021/06/25 05:31:02;;;;;;;10.30;5.00;;;;;;;15.99;79.44;101089.92;124827;1093;64302;-72
2021/06/25 05:33:29;;;;;;;10.17;6.17;;;;;;;16.09;79.01;101091.19;124712;1093;64329;-72
2021/06/25 05:35:56;;;;;;;6.70;4.10;;;;;;;16.21;78.69;101093.27;124793;1092;64304;-72
2021/06/25 05:38:23;;;;;;;8.43;4.90;;;;;;;16.26;77.66;101088.97;124851;1093;64212;-72
2021/06/25 05:40:51;;;;;;;8.97;4.50;;;;;;;16.31;76.87;101088.35;124891;1093;64249;-73
2021/06/25 05:43:18;;;;;;;8.87;4.83;;;;;;;16.37;77.13;101094.76;124869;1092;64332;-73
2021/06/25 05:45:45;;;;;;;7.97;4.53;;;;;;;16.48;76.23;101091.47;124850;1092;64346;-73
2021/06/25 05:48:13;;;;;;;4.03;3.17;;;;;;;16.58;74.38;101086.55;125218;1093;64307;-72
2021/06/25 05:50:40;;;;;;;10.43;4.27;;;;;;;16.67;75.19;101098.69;124938;1093;65186;-73
2021/06/25 05:53:08;;;;;;;9.45;4.90;;;;;;;16.79;74.03;101095.39;124912;1093;64208;-73
2021/06/25 05:55:35;;;;;;;8.37;4.17;;;;;;;16.91;73.23;101099.14;125071;1093;64986;-74
2021/06/25 05:58:02;;;;;;;6.37;4.03;;;;;;;17.06;72.79;101096.23;124821;1093;64265;-73
2021/06/25 06:00:29;;;;;;;10.77;4.30;;;;;;;17.17;72.75;101097.46;124688;1093;64288;-72
2021/06/25 06:02:57;;;;;;;7.77;3.90;;;;;;;17.28;72.47;101094.16;124864;1093;64304;-73
2021/06/25 06:05:25;;;;;;;10.13;5.23;;;;;;;17.33;72.14;101100.52;124910;1091;64269;-73
2021/06/25 06:07:52;;;;;;;8.35;4.35;;;;;;;17.38;71.70;101099.89;124898;1093;64307;-75
2021/06/25 06:10:19;;;;;;;9.43;4.30;;;;;;;17.37;71.93;101098.25;124940;1093;65367;-74
2021/06/25 06:12:47;;;;;;;6.40;4.20;;;;;;;17.43;71.70;101104.65;125050;1093;64259;-73
2021/06/25 06:15:16;;;;;;;6.33;4.23;;;;;;;17.52;72.15;101096.14;125164;1093;64428;-73
2021/06/25 06:17:47;;;;;;;5.40;4.10;;;;;;;17.61;71.25;101093.23;125169;1093;64285;-72
2021/06/25 06:20:21;;;;;;;8.47;4.50;;;;;;;17.67;71.05;101090.52;125234;1093;64279;-73
2021/06/25 06:31:21;;;;;;;7.50;4.73;;;;;;;17.67;69.93;101103.13;125282;1092;64204;-74
2021/06/25 06:34:07;;;;;;;5.83;4.10;;;;;;;17.68;70.01;101104.75;125093;1092;64205;-74
2021/06/25 06:36:45;;;;;;;9.83;4.87;;;;;;;17.69;70.19;101106.42;125044;1093;64416;-73
2021/06/25 06:39:13;;;;;;;6.20;4.33;;;;;;;17.73;69.92;101105.78;125107;1093;64230;-72
2021/06/25 06:41:42;;;;;;;6.67;5.27;;;;;;;17.81;69.79;101110.09;125086;1093;64527;-72
2021/06/25 06:44:09;;;;;;;8.93;5.77;;;;;;;17.96;69.71;101117.06;124973;1092;64285;-72
2021/06/25 06:46:37;;;;;;;9.77;5.83;;;;;;;18.13;69.24;101107.50;124950;1092;64284;-72
2021/06/25 06:49:05;;;;;;;9.93;5.67;;;;;;;18.13;68.44;101113.69;124883;1093;64294;-73
2021/06/25 06:51:32;;;;;;;6.20;4.80;;;;;;;18.13;68.62;101119.05;125028;1092;64281;-73
2021/06/25 06:54:02;;;;;;;5.37;4.40;;;;;;;18.07;66.75;101119.09;125078;1092;64414;-73
2021/06/25 06:56:30;;;;;;;6.50;4.40;;;;;;;18.07;67.79;101111.04;125186;1093;64975;-73
2021/06/25 06:58:59;;;;;;;8.70;4.57;;;;;;;18.19;68.44;101116.53;124989;1093;64227;-74
2021/06/25 07:01:29;;;;;;;6.83;3.70;;;;;;;18.38;68.49;101114.77;125586;1093;64339;-73
2021/06/25 07:04:16;;;;;;;7.87;4.30;;;;;;;18.62;68.43;101105.94;124984;1092;65299;-72
2021/06/25 07:06:43;;;;;;;8.20;5.47;;;;;;;18.84;67.20;101113.66;125169;1093;64365;-72
2021/06/25 07:09:10;;;;;;;12.23;6.20;;;;;;;18.99;66.39;101105.26;125888;1093;64169;-72
2021/06/25 07:11:37;;;;;;;8.60;5.33;;;;;;;19.11;65.83;101114.25;125511;1093;64231;-73
2021/06/25 07:14:04;;;;;;;9.33;5.67;;;;;;;19.24;65.30;101113.30;124723;1092;64365;-76
2021/06/25 07:16:31;;;;;;;5.97;4.70;;;;;;;19.38;64.55;101113.97;124903;1093;64304;-75
2021/06/25 07:18:59;;;;;;;9.77;5.67;;;;;;;19.47;64.67;101115.34;124796;1091;65472;-74
2021/06/25 07:21:26;;;;;;;7.17;4.73;;;;;;;19.53;65.02;101107.19;124771;1093;64470;-74
2021/06/25 07:23:53;;;;;;;8.97;5.33;;;;;;;19.58;64.07;101116.47;124905;1093;64285;-73
2021/06/25 07:26:20;;;;;;;7.37;4.73;;;;;;;19.46;63.54;101117.19;124891;1093;64297;-74
2021/06/25 07:28:47;;;;;;;21.67;12.93;;;;;;;19.32;64.15;101113.02;125117;1093;65436;-74
2021/06/25 07:31:14;;;;;;;10.03;7.00;;;;;;;19.25;64.68;101114.93;124911;1093;64444;-75
2021/06/25 07:33:41;;;;;;;9.50;6.90;;;;;;;19.28;64.18;101109.13;124796;1093;64371;-74
2021/06/25 07:36:08;;;;;;;9.03;6.23;;;;;;;19.35;64.80;101112.55;124763;1093;64355;-72
2021/06/25 07:38:36;;;;;;;9.60;6.37;;;;;;;19.43;63.96;101108.77;124697;1093;64275;-73
2021/06/25 07:41:02;;;;;;;8.40;6.07;;;;;;;19.48;63.82;101109.72;124871;1093;64304;-73
2021/06/25 07:43:29;;;;;;;8.25;6.10;;;;;;;19.53;62.49;101107.19;124866;1093;64327;-73
2021/06/25 07:45:56;;;;;;;9.43;7.53;;;;;;;19.55;62.46;101104.25;124918;1093;64989;-73
2021/06/25 07:48:24;;;;;;;7.03;5.43;;;;;;;19.56;61.37;101100.53;124917;1092;64707;-73
2021/06/25 07:50:51;;;;;;;7.83;4.80;;;;;;;19.51;61.52;101093.14;124807;1093;64304;-73
2021/06/25 07:53:18;;;;;;;6.47;5.30;;;;;;;19.60;62.62;101096.34;124699;1093;64855;-73
2021/06/25 07:55:45;;;;;;;9.60;8.27;;;;;;;19.59;61.35;101089.30;124697;1093;65481;-73
2021/06/25 07:58:15;;;;;;;9.40;6.70;;;;;;;19.52;62.08;101094.77;124898;1093;64287;-72
2021/06/25 08:00:42;;;;;;;10.30;7.10;;;;;;;19.41;62.66;101095.52;125002;1093;64282;-71
2021/06/25 08:03:09;;;;;;;14.47;7.03;;;;;;;19.37;63.18;101091.63;124935;1093;64301;-71
2021/06/25 08:05:37;;;;;;;16.70;11.37;;;;;;;19.42;62.96;101094.46;124777;1093;64372;-72
2021/06/25 08:08:04;;;;;;;13.10;8.40;;;;;;;19.48;62.03;101100.83;124716;1093;64272;-72
2021/06/25 08:10:33;;;;;;;8.17;6.47;;;;;;;19.60;62.60;101096.34;124959;1092;64284;-73
2021/06/25 08:13:02;;;;;;;11.50;9.47;;;;;;;19.74;60.67;101097.02;125077;1092;64261;-72
2021/06/25 08:15:29;;;;;;;62.80;50.07;;;;;;;19.90;60.88;101091.03;124921;1093;64319;-72
2021/06/25 08:17:56;;;;;;;12.23;9.63;;;;;;;20.17;60.24;101096.07;124868;1092;64176;-72
2021/06/25 08:20:24;;;;;;;11.83;7.77;;;;;;;20.38;60.75;101086.65;124922;1093;64470;-73
2021/06/25 08:22:51;;;;;;;26.25;20.25;;;;;;;20.61;59.62;101091.27;124865;1093;64307;-72
2021/06/25 08:25:18;;;;;;;18.03;13.23;;;;;;;20.73;59.02;101092.11;124871;1093;64323;-72
2021/06/25 08:27:46;;;;;;;92.20;70.17;;;;;;;20.98;58.91;101085.70;124750;1093;64493;-72
2021/06/25 08:30:13;;;;;;;8.87;7.00;;;;;;;21.44;59.13;101080.50;124912;1093;64301;-71
2021/06/25 08:32:42;;;;;;;8.53;6.83;;;;;;;21.86;57.47;101083.79;124895;1093;64281;-71
2021/06/25 08:35:11;;;;;;;8.10;7.03;;;;;;;22.05;56.64;101083.61;124957;1092;64336;-71
2021/06/25 08:37:38;;;;;;;8.47;7.20;;;;;;;22.11;55.93;101078.05;124980;1092;64307;-72
2021/06/25 08:40:08;;;;;;;10.43;7.73;;;;;;;21.96;54.83;101081.28;124876;1092;64304;-72
2021/06/25 08:42:39;;;;;;;9.70;5.10;;;;;;;21.86;55.37;101078.39;124916;1093;64245;-72
2021/06/25 08:45:08;;;;;;;10.10;7.17;;;;;;;21.76;56.06;101072.78;124850;1093;65619;-72
2021/06/25 08:47:47;;;;;;;8.47;7.00;;;;;;;21.60;57.05;101078.96;124968;1093;64285;-72
2021/06/25 08:50:19;;;;;;;9.67;7.47;;;;;;;21.35;56.65;101078.14;124864;1093;65520;-72
2021/06/25 08:52:49;;;;;;;9.00;6.97;;;;;;;21.17;57.88;101073.72;124991;1093;64282;-72
2021/06/25 08:55:18;;;;;;;10.87;7.60;;;;;;;21.03;58.43;101077.70;124795;1092;64467;-73
2021/06/25 08:57:45;;;;;;;10.83;9.57;;;;;;;20.86;58.31;101077.59;124803;1093;64266;-72
2021/06/25 09:00:15;;;;;;;9.43;8.20;;;;;;;20.60;58.52;101081.56;124857;1093;64205;-72
2021/06/25 09:02:44;;;;;;;10.80;8.40;;;;;;;20.43;59.13;101073.29;124964;1093;64285;-73
2021/06/25 09:05:20;;;;;;;8.20;5.93;;;;;;;20.29;59.69;101072.66;124973;1093;64282;-73
2021/06/25 09:07:48;;;;;;;11.13;9.13;;;;;;;20.24;60.54;101064.45;124892;1093;64326;-71
2021/06/25 09:10:27;;;;;;;10.80;8.87;;;;;;;20.21;60.13;101064.93;124805;1092;64474;-71
2021/06/25 09:13:11;;;;;;;11.13;8.33;;;;;;;20.12;60.37;101072.48;124934;1093;64978;-74
2021/06/25 09:15:40;;;;;;;;;;;;;;;19.98;60.88;101075.59;124708;1093;64355;-73
2021/06/25 09:18:10;;;;;;;13.73;10.83;;;;;;;19.82;61.84;101077.88;124847;1093;65362;-72
2021/06/25 09:20:58;;;;;;;17.10;13.37;;;;;;;19.72;61.93;101085.66;124946;1093;64317;-73
2021/06/25 09:23:36;;;;;;;12.67;11.00;;;;;;;19.68;63.04;101079.09;124884;1093;64367;-73
2021/06/25 09:26:31;;;;;;;21.03;16.37;;;;;;;19.59;63.52;101083.11;124903;1092;64282;-73
2021/06/25 09:29:12;;;;;;;71.50;53.25;;;;;;;19.58;63.65;101076.91;124870;1093;64284;-73
2021/06/25 09:31:39;;;;;;;11.37;9.27;;;;;;;19.60;63.47;101079.39;124738;1092;64301;-76
2021/06/25 09:34:08;;;;;;;13.10;9.77;;;;;;;19.62;64.04;101070.03;124906;1093;64301;-73
2021/06/25 09:36:40;;;;;;;11.00;8.60;;;;;;;19.60;63.64;101069.44;124941;1093;64355;-74
2021/06/25 09:39:10;;;;;;;15.60;13.07;;;;;;;19.64;63.77;101075.20;124901;1093;64312;-73
2021/06/25 09:41:40;;;;;;;12.05;9.40;;;;;;;19.71;63.67;101075.95;124890;1093;64288;-73
2021/06/25 09:44:10;;;;;;;12.50;8.10;;;;;;;19.78;63.69;101065.92;124967;1092;64304;-75
2021/06/25 09:46:41;;;;;;;10.90;9.15;;;;;;;19.80;63.30;101074.59;124962;1093;64288;-73
2021/06/25 09:49:13;;;;;;;14.95;9.45;;;;;;;19.83;63.51;101078.72;125070;1093;64420;-74
2021/06/25 09:51:53;;;;;;;15.30;11.87;;;;;;;19.88;62.99;101070.77;124707;1093;64776;-75
2021/06/25 09:54:20;;;;;;;12.07;8.80;;;;;;;19.92;63.36;101075.47;126831;1092;64297;-72
2021/06/25 10:02:23;;;;;;;13.57;11.10;;;;;;;19.61;64.55;101064.87;124937;1093;64206;-74
2021/06/25 10:05:10;;;;;;;14.23;10.30;;;;;;;19.52;64.45;101065.17;124983;1093;64332;-75
2021/06/25 10:07:38;;;;;;;10.23;7.10;;;;;;;19.45;65.64;101072.51;124888;1093;64288;-73
2021/06/25 10:10:09;;;;;;;10.10;7.87;;;;;;;19.39;66.15;101072.59;124900;1093;64702;-73
2021/06/25 10:12:39;;;;;;;13.50;9.90;;;;;;;19.26;66.26;101078.94;124828;1093;64230;-73
2021/06/25 10:15:07;;;;;;;9.20;7.57;;;;;;;19.08;67.40;101075.19;124701;1092;64425;-72
2021/06/25 10:17:36;;;;;;;26.37;18.77;;;;;;;18.90;68.49;101083.20;124867;1093;64297;-73
2021/06/25 10:20:09;;;;;;;18.10;13.50;;;;;;;18.71;69.20;101083.13;125021;1093;64715;-74
2021/06/25 10:22:37;;;;;;;22.13;16.63;;;;;;;18.55;71.93;101089.03;124866;1093;64234;-73
2021/06/25 10:25:08;;;;;;;24.53;18.77;;;;;;;18.39;73.15;101090.39;124917;1093;64298;-74
2021/06/25 10:27:37;;;;;;;103.80;73.40;;;;;;;18.26;73.45;101083.25;124854;1093;64425;-72
2021/06/25 10:30:08;;;;;;;36.60;23.87;;;;;;;18.17;74.30;101084.55;124899;1093;64469;-73
2021/06/25 10:32:38;;;;;;;23.03;17.17;;;;;;;18.11;74.58;101082.72;124944;1092;64750;-73
2021/06/25 10:35:11;;;;;;;22.57;15.90;;;;;;;18.09;74.66;101074.06;124887;1093;64301;-75
2021/06/25 10:37:40;;;;;;;47.43;34.47;;;;;;;18.09;74.96;101090.17;125146;1093;64966;-73
2021/06/25 10:40:25;;;;;;;10.30;6.90;;;;;;;18.04;76.49;101090.82;124935;1093;64384;-74
2021/06/25 10:42:54;;;;;;;15.10;11.00;;;;;;;18.03;76.65;101102.58;124736;1093;64368;-74
2021/06/25 10:45:38;;;;;;;17.97;12.50;;;;;;;17.94;77.57;101090.45;124975;1093;64284;-74
2021/06/25 10:48:07;;;;;;;;;;;;;;;17.93;76.85;101092.30;125073;1093;64409;-75
2021/06/25 10:50:34;;;;;;;18.93;11.90;;;;;;;17.98;75.80;101093.52;125072;1093;64294;-74
2021/06/25 10:53:17;;;;;;;18.67;11.50;;;;;;;18.09;75.60;101084.80;124782;1093;64297;-73
2021/06/25 10:55:59;;;;;;;16.37;9.90;;;;;;;18.32;75.43;101089.63;124958;1093;64380;-74
2021/06/25 10:58:27;;;;;;;14.23;11.33;;;;;;;18.68;75.40;101088.95;124981;1093;65514;-75
2021/06/25 11:00:57;;;;;;;14.60;11.27;;;;;;;19.05;75.49;101082.87;124943;1093;64320;-73
2021/06/25 11:03:43;;;;;;;9.93;7.57;;;;;;;19.44;74.26;101086.98;124904;1092;64272;-73
2021/06/25 11:06:35;;;;;;;16.60;12.45;;;;;;;19.78;72.56;101082.06;124960;1093;64336;-75
2021/06/25 11:09:07;;;;;;;14.17;10.83;;;;;;;20.10;69.50;101073.77;124923;1091;64282;-75
2021/06/25 11:11:35;;;;;;;10.87;8.27;;;;;;;20.41;69.12;101074.58;124878;1093;64275;-75
2021/06/25 11:14:02;;;;;;;13.53;9.87;;;;;;;20.66;67.06;101077.94;124812;1093;64365;-74
2021/06/25 11:16:29;;;;;;;11.93;9.40;;;;;;;20.90;65.72;101073.38;124935;1092;64236;-74
2021/06/25 11:18:59;;;;;;;11.90;9.63;;;;;;;21.13;62.12;101067.16;124960;1092;64374;-75
2021/06/25 11:21:43;;;;;;;9.20;7.63;;;;;;;21.35;60.15;101070.05;124957;1093;64301;-77
2021/06/25 11:24:11;;;;;;;10.70;8.97;;;;;;;21.53;60.11;101066.41;124930;1092;64319;-77
2021/06/25 11:26:57;;;;;;;10.70;8.63;;;;;;;21.78;60.74;101059.86;124875;1093;64243;-76
2021/06/25 11:29:43;;;;;;;12.07;9.80;;;;;;;22.00;60.29;101065.42;124903;1093;64285;-75
2021/06/25 11:32:25;;;;;;;13.27;9.90;;;;;;;22.27;60.07;101060.27;124938;1093;64364;-76
2021/06/25 11:34:52;;;;;;;9.70;8.10;;;;;;;22.69;60.01;101070.67;124875;1093;64233;-79
2021/06/25 11:37:19;;;;;;;10.00;7.53;;;;;;;23.16;59.53;101062.21;124890;1093;64301;-76
2021/06/25 11:39:51;;;;;;;12.00;10.73;;;;;;;23.51;56.57;101062.91;124907;1093;64285;-75
2021/06/25 11:42:18;;;;;;;11.13;9.03;;;;;;;23.65;55.15;101058.73;124926;1093;64953;-77
2021/06/25 11:44:49;;;;;;;12.03;10.40;;;;;;;23.74;51.46;101056.41;124843;1093;64387;-74